Time;durP1;ratioP1;P1;durP2;ratioP2;P2;SDS_P1;SDS_P2;PMS_P1;PMS_P2;Temp;Humidity;BMP_temperature;BMP_pressure;BME280_temperature;BME280_humidity;BME280_pressure;Samples;Min_cycle;Max_cycle;Signal;HPM_P1;HPM_P2
2023/07/03 02:02:00;;;;;;;12.55;5.75;;;;;;;;;;4499038;27;20117;-75
2023/07/03 02:04:46;;;;;;;20.15;6.22;;;;;;;;;;4328019;33;20041;-75
2023/07/03 02:07:12;;;;;;;8.25;4.60;;;;;;;;;;4327500;33;20083;-75
2023/07/03 02:09:40;;;;;;;10.50;5.12;;;;;;;;;;4327007;33;20074;-75
2023/07/03 02:12:08;;;;;;;8.48;4.78;;;;;;;;;;4327206;33;20062;-75
2023/07/03 02:14:34;;;;;;;13.13;5.65;;;;;;;;;;4326183;33;20048;-75
2023/07/03 02:17:01;;;;;;;20.70;6.32;;;;;;;;;;4326460;33;20836;-75
2023/07/03 02:19:31;;;;;;;13.30;5.60;;;;;;;;;;4327079;33;20476;-74
2023/07/03 02:21:58;;;;;;;12.98;5.55;;;;;;;;;;4310197;33;20048;-75
2023/07/03 02:24:25;;;;;;;11.77;5.15;;;;;;;;;;4309827;33;20098;-77
2023/07/03 02:26:52;;;;;;;13.32;5.78;;;;;;;;;;4308896;33;20040;-76
2023/07/03 02:29:19;;;;;;;18.62;6.25;;;;;;;;;;4309619;33;20441;-74
2023/07/03 02:31:45;;;;;;;11.98;5.03;;;;;;;;;;4308637;33;20164;-75
2023/07/03 02:34:12;;;;;;;10.40;5.18;;;;;;;;;;4309559;33;20107;-75
2023/07/03 02:36:39;;;;;;;9.73;5.15;;;;;;;;;;4308909;33;20071;-76
2023/07/03 02:39:09;;;;;;;20.52;6.55;;;;;;;;;;4309537;33;20117;-75
2023/07/03 02:41:35;;;;;;;15.13;5.65;;;;;;;;;;4310047;33;20041;-75
2023/07/03 02:44:01;;;;;;;10.50;5.30;;;;;;;;;;4310069;33;20443;-75
2023/07/03 02:46:28;;;;;;;13.75;5.25;;;;;;;;;;4309744;33;20041;-75
2023/07/03 02:48:55;;;;;;;20.85;5.78;;;;;;;;;;4308380;33;20467;-75
2023/07/03 02:51:22;;;;;;;9.88;5.15;;;;;;;;;;4276099;33;20042;-75
2023/07/03 02:53:48;;;;;;;17.25;6.30;;;;;;;;;;4284228;33;20045;-75
2023/07/03 02:56:14;;;;;;;9.23;5.18;;;;;;;;;;4292521;33;20065;-76
2023/07/03 02:58:41;;;;;;;12.93;4.90;;;;;;;;;;4289608;33;20104;-76
2023/07/03 03:01:09;;;;;;;13.62;4.95;;;;;;;;;;4280759;33;20058;-78
2023/07/03 03:03:35;;;;;;;11.93;5.03;;;;;;;;;;4280531;33;20068;-76
2023/07/03 03:06:08;;;;;;;17.67;5.03;;;;;;;;;;4280551;33;20068;-75
2023/07/03 03:08:35;;;;;;;9.88;5.40;;;;;;;;;;4279446;33;20049;-76
2023/07/03 03:11:02;;;;;;;8.73;4.95;;;;;;;;;;4280301;33;20083;-77
2023/07/03 03:13:28;;;;;;;14.10;6.35;;;;;;;;;;4278635;33;20060;-75
2023/07/03 03:15:55;;;;;;;12.05;5.72;;;;;;;;;;4279184;33;20078;-77
2023/07/03 03:18:22;;;;;;;11.30;5.93;;;;;;;;;;4278735;33;20464;-76
2023/07/03 03:20:48;;;;;;;18.58;5.80;;;;;;;;;;4280239;33;20517;-75
2023/07/03 03:23:14;;;;;;;15.20;5.93;;;;;;;;;;4302045;33;20066;-77
2023/07/03 03:25:41;;;;;;;8.15;4.62;;;;;;;;;;4307525;33;20083;-76
2023/07/03 03:28:08;;;;;;;9.85;5.75;;;;;;;;;;4279709;33;20162;-75
2023/07/03 03:30:35;;;;;;;11.35;5.60;;;;;;;;;;4290775;33;20042;-76
2023/07/03 03:33:02;;;;;;;16.17;5.50;;;;;;;;;;4293002;33;20060;-76
2023/07/03 03:35:28;;;;;;;13.43;5.57;;;;;;;;;;4292937;33;20057;-77
2023/07/03 03:37:55;;;;;;;14.98;5.53;;;;;;;;;;4293549;33;20396;-75
2023/07/03 03:40:21;;;;;;;14.15;5.70;;;;;;;;;;4294211;33;20076;-76
2023/07/03 03:42:47;;;;;;;12.88;5.10;;;;;;;;;;4294455;33;20075;-76
2023/07/03 03:45:14;;;;;;;12.18;5.78;;;;;;;;;;4294542;33;20053;-77
2023/07/03 03:47:40;;;;;;;10.10;5.30;;;;;;;;;;4276570;33;20053;-78
2023/07/03 03:50:07;;;;;;;14.10;5.43;;;;;;;;;;4278736;33;20053;-76
2023/07/03 03:52:35;;;;;;;12.20;4.78;;;;;;;;;;4280112;33;20075;-76
2023/07/03 03:55:00;;;;;;;14.15;5.45;;;;;;;;;;4294164;33;20482;-76
2023/07/03 03:57:27;;;;;;;11.35;5.57;;;;;;;;;;4294573;33;20086;-76
2023/07/03 03:59:53;;;;;;;14.40;5.50;;;;;;;;;;4303858;33;20067;-75
2023/07/03 04:02:20;;;;;;;20.70;6.15;;;;;;;;;;4308206;33;20935;-77
2023/07/03 04:04:46;;;;;;;14.40;5.90;;;;;;;;;;4308376;33;20041;-75
2023/07/03 04:07:13;;;;;;;14.98;6.00;;;;;;;;;;4307461;33;20041;-75
2023/07/03 04:09:45;;;;;;;10.65;5.20;;;;;;;;;;4306958;33;20491;-77
2023/07/03 04:12:12;;;;;;;9.95;4.82;;;;;;;;;;4307960;33;20118;-75
2023/07/03 04:14:38;;;;;;;9.10;5.10;;;;;;;;;;4307896;33;20070;-74
2023/07/03 04:17:08;;;;;;;24.58;5.32;;;;;;;;;;4306779;33;20071;-75
2023/07/03 04:19:36;;;;;;;18.98;6.50;;;;;;;;;;4318853;33;20049;-75
2023/07/03 04:22:03;;;;;;;15.93;7.70;;;;;;;;;;4308544;33;20390;-75
2023/07/03 04:24:29;;;;;;;22.65;6.12;;;;;;;;;;4322341;33;20192;-75
2023/07/03 04:26:58;;;;;;;12.77;5.70;;;;;;;;;;4310861;33;20075;-75
2023/07/03 04:29:24;;;;;;;19.15;8.10;;;;;;;;;;4308304;33;20451;-75
2023/07/03 04:31:51;;;;;;;13.60;6.05;;;;;;;;;;4306582;33;20109;-77
2023/07/03 04:34:17;;;;;;;11.30;5.80;;;;;;;;;;4292873;33;20049;-75
2023/07/03 04:36:43;;;;;;;14.07;5.97;;;;;;;;;;4293913;33;20053;-76
2023/07/03 04:39:09;;;;;;;10.45;5.57;;;;;;;;;;4286565;33;20049;-76
2023/07/03 04:41:36;;;;;;;11.60;5.62;;;;;;;;;;4287030;33;20859;-76
2023/07/03 04:44:02;;;;;;;12.43;5.70;;;;;;;;;;4286319;33;20049;-77
2023/07/03 04:46:28;;;;;;;15.48;5.45;;;;;;;;;;4285548;33;20219;-76
2023/07/03 04:48:59;;;;;;;13.93;5.62;;;;;;;;;;4286149;33;20201;-74
2023/07/03 04:51:30;;;;;;;13.73;5.37;;;;;;;;;;4288410;33;20053;-74
2023/07/03 04:53:58;;;;;;;19.48;6.72;;;;;;;;;;4279523;33;20045;-76
2023/07/03 04:56:25;;;;;;;11.23;5.37;;;;;;;;;;4292560;33;20073;-74
2023/07/03 04:58:51;;;;;;;13.30;4.90;;;;;;;;;;4295106;33;20070;-75
2023/07/03 05:01:18;;;;;;;15.40;6.43;;;;;;;;;;4296030;33;20189;-75
2023/07/03 05:03:44;;;;;;;26.25;6.00;;;;;;;;;;4296226;33;20158;-75
2023/07/03 05:06:10;;;;;;;9.82;4.53;;;;;;;;;;4292635;33;20053;-75
2023/07/03 05:08:36;;;;;;;11.32;4.65;;;;;;;;;;4307093;33;20056;-75
2023/07/03 05:11:03;;;;;;;13.82;5.03;;;;;;;;;;4304205;33;20053;-75
2023/07/03 05:13:29;;;;;;;17.85;5.20;;;;;;;;;;4291980;33;20514;-76
2023/07/03 05:15:55;;;;;;;22.98;6.55;;;;;;;;;;4285595;33;20079;-75
2023/07/03 05:18:22;;;;;;;12.60;5.70;;;;;;;;;;4305834;33;20117;-78
2023/07/03 05:20:48;;;;;;;13.98;6.28;;;;;;;;;;4308647;33;20060;-76
2023/07/03 05:23:15;;;;;;;10.85;6.25;;;;;;;;;;4309432;33;20067;-75
2023/07/03 05:25:46;;;;;;;14.15;5.87;;;;;;;;;;4309651;33;20045;-76
2023/07/03 05:28:12;;;;;;;6.95;4.72;;;;;;;;;;4309660;33;20028;-76
2023/07/03 05:30:39;;;;;;;17.00;5.05;;;;;;;;;;4306929;33;20057;-77
2023/07/03 05:33:05;;;;;;;15.32;6.28;;;;;;;;;;4310324;33;20075;-76
2023/07/03 05:35:31;;;;;;;24.33;5.95;;;;;;;;;;4310143;33;20496;-75
2023/07/03 05:37:59;;;;;;;11.18;5.30;;;;;;;;;;4310023;33;20045;-75
2023/07/03 05:40:27;;;;;;;11.07;5.15;;;;;;;;;;4302421;33;20443;-76
2023/07/03 05:42:53;;;;;;;11.15;5.40;;;;;;;;;;4286053;33;20033;-78
2023/07/03 05:45:19;;;;;;;15.70;4.65;;;;;;;;;;4320182;33;20055;-75
2023/07/03 05:47:46;;;;;;;9.98;5.03;;;;;;;;;;4326024;33;20066;-76
2023/07/03 05:50:12;;;;;;;8.48;4.47;;;;;;;;;;4309440;33;20071;-75
2023/07/03 05:52:40;;;;;;;13.15;4.40;;;;;;;;;;4310272;33;20125;-75
2023/07/03 05:55:06;;;;;;;12.45;4.90;;;;;;;;;;4308311;33;20060;-75
2023/07/03 05:57:32;;;;;;;6.53;3.95;;;;;;;;;;4279932;33;20088;-75
2023/07/03 05:59:59;;;;;;;15.43;5.22;;;;;;;;;;4279270;33;20064;-75
2023/07/03 06:02:25;;;;;;;18.23;4.90;;;;;;;;;;4279898;33;20053;-75
2023/07/03 06:04:51;;;;;;;9.32;4.43;;;;;;;;;;4278948;33;20443;-77
2023/07/03 06:07:17;;;;;;;10.45;4.37;;;;;;;;;;4279821;33;20088;-75
2023/07/03 06:09:45;;;;;;;9.35;4.43;;;;;;;;;;4281073;33;20071;-75
2023/07/03 06:12:11;;;;;;;10.35;3.75;;;;;;;;;;4281077;33;20118;-75
2023/07/03 06:14:44;;;;;;;14.38;5.25;;;;;;;;;;4266461;33;20072;-76
2023/07/03 06:17:10;;;;;;;11.73;5.35;;;;;;;;;;4265252;33;20551;-75
2023/07/03 06:19:37;;;;;;;8.50;3.85;;;;;;;;;;4266813;33;20105;-76
2023/07/03 06:22:03;;;;;;;9.45;3.70;;;;;;;;;;4276952;33;20165;-76
2023/07/03 06:24:29;;;;;;;12.68;4.45;;;;;;;;;;4279670;33;20053;-77
2023/07/03 06:26:57;;;;;;;10.55;5.15;;;;;;;;;;4276473;33;20030;-79
2023/07/03 06:29:23;;;;;;;10.82;5.28;;;;;;;;;;4286287;33;20310;-75
2023/07/03 06:31:51;;;;;;;14.45;4.40;;;;;;;;;;4290213;33;20037;-77
2023/07/03 06:34:17;;;;;;;10.88;3.60;;;;;;;;;;4295651;33;20049;-76
2023/07/03 06:36:43;;;;;;;10.13;4.22;;;;;;;;;;4293096;33;20088;-77
2023/07/03 06:39:10;;;;;;;7.45;3.53;;;;;;;;;;4306158;33;20136;-76
2023/07/03 06:41:36;;;;;;;11.95;4.80;;;;;;;;;;4308005;33;20075;-76
2023/07/03 06:44:03;;;;;;;12.27;4.25;;;;;;;;;;4309460;33;20390;-77
2023/07/03 06:46:29;;;;;;;10.57;4.53;;;;;;;;;;4309451;33;20091;-75
2023/07/03 06:48:56;;;;;;;7.62;3.40;;;;;;;;;;4307298;33;20079;-76
2023/07/03 06:51:23;;;;;;;22.95;4.32;;;;;;;;;;4307280;33;20045;-75
2023/07/03 06:53:49;;;;;;;17.65;4.82;;;;;;;;;;4309202;33;20564;-75
2023/07/03 06:56:17;;;;;;;6.25;4.00;;;;;;;;;;4309249;33;20048;-76
2023/07/03 06:58:43;;;;;;;7.45;3.97;;;;;;;;;;4294231;33;20049;-76
2023/07/03 07:01:10;;;;;;;7.50;3.90;;;;;;;;;;4292448;33;20041;-78
2023/07/03 07:03:38;;;;;;;6.68;3.25;;;;;;;;;;4293493;33;20633;-75
2023/07/03 07:06:08;;;;;;;13.55;4.07;;;;;;;;;;4294127;33;20037;-75
2023/07/03 07:08:34;;;;;;;9.23;4.40;;;;;;;;;;4294198;33;20033;-75
2023/07/03 07:11:01;;;;;;;8.95;4.40;;;;;;;;;;4282396;33;20164;-77
2023/07/03 07:13:34;;;;;;;13.57;3.87;;;;;;;;;;4294634;33;20065;-75
2023/07/03 07:16:00;;;;;;;9.45;5.10;;;;;;;;;;4295078;33;20083;-75
2023/07/03 07:18:27;;;;;;;15.20;5.25;;;;;;;;;;4294416;33;20100;-76
2023/07/03 07:20:59;;;;;;;18.55;4.57;;;;;;;;;;4281868;33;20083;-76
2023/07/03 07:23:26;;;;;;;12.65;5.53;;;;;;;;;;4292575;33;20048;-74
2023/07/03 07:25:53;;;;;;;10.05;3.85;;;;;;;;;;4295314;33;20063;-75
2023/07/03 07:28:19;;;;;;;6.47;4.22;;;;;;;;;;4274546;33;20062;-75
2023/07/03 07:30:46;;;;;;;16.02;4.45;;;;;;;;;;4304481;33;20045;-76
2023/07/03 07:33:12;;;;;;;17.60;4.65;;;;;;;;;;4305927;33;20066;-76
2023/07/03 07:35:38;;;;;;;10.68;4.75;;;;;;;;;;4309862;33;20048;-76
2023/07/03 07:38:05;;;;;;;14.77;4.43;;;;;;;;;;4293361;33;20217;-76
2023/07/03 07:40:31;;;;;;;7.53;3.58;;;;;;;;;;4294284;33;20174;-76
2023/07/03 07:42:57;;;;;;;13.80;4.62;;;;;;;;;;4294360;33;20067;-77
2023/07/03 07:45:23;;;;;;;13.60;4.12;;;;;;;;;;4291727;33;20067;-77
2023/07/03 07:47:49;;;;;;;9.88;4.05;;;;;;;;;;4292940;33;20430;-76
2023/07/03 07:50:15;;;;;;;9.48;4.07;;;;;;;;;;4294066;33;20037;-75
2023/07/03 07:52:43;;;;;;;10.90;4.00;;;;;;;;;;4280588;33;20049;-77
2023/07/03 07:55:09;;;;;;;8.98;3.78;;;;;;;;;;4278912;33;20462;-76
2023/07/03 07:57:35;;;;;;;11.10;4.22;;;;;;;;;;4277149;33;20059;-78
2023/07/03 08:00:03;;;;;;;11.50;4.72;;;;;;;;;;4278690;33;20075;-76
2023/07/03 08:02:38;;;;;;;7.93;4.20;;;;;;;;;;4278761;33;20101;-77
2023/07/03 08:05:04;;;;;;;33.80;6.15;;;;;;;;;;4276747;33;20079;-76
2023/07/03 08:07:31;;;;;;;9.45;4.53;;;;;;;;;;4276892;33;20110;-78
2023/07/03 08:09:57;;;;;;;10.75;4.90;;;;;;;;;;4315936;33;20041;-77
2023/07/03 08:12:23;;;;;;;9.38;4.80;;;;;;;;;;4307923;33;20431;-76
2023/07/03 08:14:49;;;;;;;10.65;5.07;;;;;;;;;;4322588;33;20062;-76
2023/07/03 08:17:15;;;;;;;8.77;3.80;;;;;;;;;;4306337;33;20061;-77
2023/07/03 08:19:41;;;;;;;12.40;4.82;;;;;;;;;;4307590;33;20041;-75
2023/07/03 08:22:08;;;;;;;12.35;4.90;;;;;;;;;;4310357;33;20132;-76
2023/07/03 08:24:34;;;;;;;14.48;4.87;;;;;;;;;;4308463;33;20033;-76
2023/07/03 08:27:00;;;;;;;13.75;5.85;;;;;;;;;;4309703;33;20385;-77
2023/07/03 08:29:26;;;;;;;9.48;5.28;;;;;;;;;;4303463;33;20108;-76
2023/07/03 08:31:53;;;;;;;12.02;5.03;;;;;;;;;;4301330;33;20070;-77
2023/07/03 08:34:19;;;;;;;9.70;4.87;;;;;;;;;;4301813;33;20367;-76
2023/07/03 08:36:45;;;;;;;9.13;5.22;;;;;;;;;;4301636;33;20059;-76
2023/07/03 08:39:11;;;;;;;12.95;5.53;;;;;;;;;;4297659;33;20077;-76
2023/07/03 08:41:41;;;;;;;19.42;5.90;;;;;;;;;;4309555;33;20063;-76
2023/07/03 08:44:08;;;;;;;12.93;5.12;;;;;;;;;;4298170;33;20495;-77
2023/07/03 08:46:35;;;;;;;11.75;5.25;;;;;;;;;;4295127;33;20086;-75
2023/07/03 08:49:04;;;;;;;9.93;5.37;;;;;;;;;;4309642;33;20101;-76
2023/07/03 08:51:30;;;;;;;13.05;4.93;;;;;;;;;;4322015;33;20118;-76
2023/07/03 08:54:19;;;;;;;13.77;5.87;;;;;;;;;;4324040;33;20040;-76
2023/07/03 08:56:47;;;;;;;20.65;5.12;;;;;;;;;;4315833;33;20061;-75
2023/07/03 08:59:13;;;;;;;16.85;6.57;;;;;;;;;;4323886;33;20036;-76
2023/07/03 09:01:44;;;;;;;9.65;5.47;;;;;;;;;;4296746;33;20195;-76
2023/07/03 09:04:16;;;;;;;8.55;4.75;;;;;;;;;;4292666;33;20062;-75
2023/07/03 09:06:52;;;;;;;11.38;5.37;;;;;;;;;;4294042;33;20070;-75
2023/07/03 09:09:30;;;;;;;12.43;5.57;;;;;;;;;;4293400;33;20447;-76
2023/07/03 09:12:01;;;;;;;14.35;5.43;;;;;;;;;;4297116;33;20048;-76
2023/07/03 09:14:29;;;;;;;17.23;4.70;;;;;;;;;;4321107;33;20061;-77
2023/07/03 09:16:56;;;;;;;18.15;5.18;;;;;;;;;;4324399;33;20422;-75
2023/07/03 09:19:25;;;;;;;11.48;4.53;;;;;;;;;;4324893;33;20058;-76
2023/07/03 09:21:52;;;;;;;8.55;5.53;;;;;;;;;;4307131;33;20102;-75
2023/07/03 09:24:20;;;;;;;12.07;7.30;;;;;;;;;;4293955;33;20195;-75
2023/07/03 09:26:59;;;;;;;12.20;5.50;;;;;;;;;;4293968;33;20513;-75
2023/07/03 09:29:25;;;;;;;14.32;4.85;;;;;;;;;;4275436;33;20025;-76
2023/07/03 09:31:53;;;;;;;13.20;5.75;;;;;;;;;;4279562;33;20063;-76
2023/07/03 09:34:19;;;;;;;12.25;6.40;;;;;;;;;;4277226;33;21537;-76
2023/07/03 09:36:59;;;;;;;15.63;5.55;;;;;;;;;;4257770;33;20056;-76
2023/07/03 09:39:31;;;;;;;11.68;4.25;;;;;;;;;;4254574;33;20161;-75
2023/07/03 09:42:07;;;;;;;14.95;5.85;;;;;;;;;;4257759;33;20054;-76
2023/07/03 09:44:40;;;;;;;19.98;5.00;;;;;;;;;;4254991;33;20060;-75
2023/07/03 09:47:16;;;;;;;9.77;4.97;;;;;;;;;;4255864;33;20046;-76
2023/07/03 09:49:42;;;;;;;10.13;4.30;;;;;;;;;;4258981;33;20349;-74
2023/07/03 09:52:08;;;;;;;19.37;5.25;;;;;;;;;;4260124;33;20038;-74
2023/07/03 09:54:40;;;;;;;6.15;4.40;;;;;;;;;;4257793;33;20042;-76
2023/07/03 09:57:16;;;;;;;9.95;4.80;;;;;;;;;;4246013;33;20626;-76
2023/07/03 09:59:43;;;;;;;11.43;5.03;;;;;;;;;;4249039;33;20411;-75
2023/07/03 10:02:11;;;;;;;12.65;5.40;;;;;;;;;;4265429;33;20046;-75
2023/07/03 10:04:42;;;;;;;9.77;5.68;;;;;;;;;;4268420;33;20033;-75
2023/07/03 10:07:12;;;;;;;13.32;6.10;;;;;;;;;;4267253;33;20050;-76
2023/07/03 10:09:40;;;;;;;12.68;4.97;;;;;;;;;;4275735;33;20464;-75
2023/07/03 10:12:11;;;;;;;13.07;5.70;;;;;;;;;;4268624;33;20522;-76
2023/07/03 10:14:48;;;;;;;9.27;5.53;;;;;;;;;;4281866;33;20041;-76
2023/07/03 10:17:17;;;;;;;11.15;5.15;;;;;;;;;;4281511;33;20716;-75
2023/07/03 10:19:45;;;;;;;11.25;5.12;;;;;;;;;;4279586;33;20047;-75
2023/07/03 10:22:12;;;;;;;13.82;5.37;;;;;;;;;;4279501;33;20053;-76
2023/07/03 10:24:40;;;;;;;13.27;5.95;;;;;;;;;;4279391;33;20064;-74
2023/07/03 10:27:07;;;;;;;9.50;5.43;;;;;;;;;;4280284;33;20045;-75
2023/07/03 10:29:37;;;;;;;10.85;5.60;;;;;;;;;;4324475;33;20074;-76
2023/07/03 10:32:06;;;;;;;10.88;5.53;;;;;;;;;;4324106;33;20075;-75
2023/07/03 10:34:37;;;;;;;11.77;6.47;;;;;;;;;;4324733;33;20044;-75
2023/07/03 10:37:05;;;;;;;;;;;;;;;;;;4295126;33;20059;-75
2023/07/03 10:39:33;;;;;;;12.98;6.25;;;;;;;;;;4300068;33;19936;-75
2023/07/03 10:42:02;;;;;;;11.82;5.47;;;;;;;;;;4296876;33;20055;-75
2023/07/03 10:44:30;;;;;;;10.18;5.68;;;;;;;;;;4294400;33;20041;-75
2023/07/03 10:47:09;;;;;;;9.15;5.32;;;;;;;;;;4293274;33;20136;-76
2023/07/03 10:49:36;;;;;;;18.62;5.68;;;;;;;;;;4294859;33;20130;-74
2023/07/03 10:52:11;;;;;;;8.75;4.80;;;;;;;;;;4302952;33;20270;-74
2023/07/03 10:54:56;;;;;;;10.60;5.62;;;;;;;;;;4286190;33;20041;-75
2023/07/03 10:57:27;;;;;;;10.23;6.03;;;;;;;;;;4260390;33;20420;-76
2023/07/03 10:59:56;;;;;;;9.52;5.45;;;;;;;;;;4262220;33;20072;-75
2023/07/03 11:02:57;;;;;;;9.40;4.82;;;;;;;;;;4390482;28;20062;-75
2023/07/03 11:05:29;;;;;;;8.30;5.35;;;;;;;;;;4187065;34;20066;-75
2023/07/03 11:08:10;;;;;;;11.12;5.10;;;;;;;;;;4195337;34;20068;-75
2023/07/03 11:10:41;;;;;;;13.13;4.90;;;;;;;;;;4214550;33;20065;-75
2023/07/03 11:13:20;;;;;;;22.00;5.03;;;;;;;;;;4187693;34;20060;-76
2023/07/03 11:16:01;;;;;;;14.18;5.12;;;;;;;;;;4187274;34;20124;-76
2023/07/03 11:18:38;;;;;;;17.55;5.53;;;;;;;;;;4173662;34;20048;-75
2023/07/03 11:21:07;;;;;;;10.18;5.22;;;;;;;;;;4172571;34;20033;-76
2023/07/03 11:23:49;;;;;;;13.38;4.87;;;;;;;;;;4175318;34;20131;-75
2023/07/03 11:26:29;;;;;;;13.35;5.80;;;;;;;;;;4176034;34;20091;-75
2023/07/03 11:28:56;;;;;;;14.48;5.95;;;;;;;;;;4182768;34;20483;-75
2023/07/03 11:31:23;;;;;;;9.27;5.20;;;;;;;;;;4180303;34;20346;-76
2023/07/03 11:33:52;;;;;;;24.85;5.10;;;;;;;;;;4175035;34;20056;-76
2023/07/03 11:36:33;;;;;;;12.07;5.95;;;;;;;;;;4179931;34;20049;-75
2023/07/03 11:39:19;;;;;;;15.55;5.87;;;;;;;;;;4175039;34;20170;-75
2023/07/03 11:41:50;;;;;;;13.57;6.43;;;;;;;;;;4216555;33;20050;-75
2023/07/03 11:44:20;;;;;;;14.43;5.97;;;;;;;;;;4246616;33;20114;-75
2023/07/03 11:46:50;;;;;;;14.30;5.43;;;;;;;;;;4261996;33;20252;-77
2023/07/03 11:49:17;;;;;;;10.00;5.43;;;;;;;;;;4273013;33;20103;-77
2023/07/03 11:51:43;;;;;;;10.18;6.32;;;;;;;;;;4291672;33;20426;-75
2023/07/03 11:54:23;;;;;;;11.35;5.40;;;;;;;;;;4293817;33;20112;-75
2023/07/03 11:56:52;;;;;;;8.77;5.15;;;;;;;;;;4290314;33;20118;-76
2023/07/03 11:59:23;;;;;;;11.45;5.82;;;;;;;;;;4291874;33;20095;-75
2023/07/03 12:01:49;;;;;;;13.55;5.80;;;;;;;;;;4291436;33;20490;-76
2023/07/03 12:04:36;;;;;;;14.85;5.18;;;;;;;;;;4292967;33;20053;-77
2023/07/03 12:07:02;;;;;;;14.13;6.30;;;;;;;;;;4293376;33;20075;-76
2023/07/03 12:09:30;;;;;;;10.57;5.50;;;;;;;;;;4288735;33;20111;-77
2023/07/03 12:11:59;;;;;;;11.25;5.47;;;;;;;;;;4291618;33;20033;-76
2023/07/03 12:17:23;;;;;;;9.70;5.72;;;;;;;;;;4294877;33;20032;-75
2023/07/03 12:19:53;;;;;;;14.87;6.57;;;;;;;;;;4291770;33;20097;-75
2023/07/03 12:22:21;;;;;;;33.95;6.47;;;;;;;;;;4294431;33;20085;-75
2023/07/03 12:24:47;;;;;;;10.93;5.72;;;;;;;;;;4295535;33;20080;-76
2023/07/03 12:27:21;;;;;;;10.65;5.00;;;;;;;;;;4295694;33;20422;-77
2023/07/03 12:29:50;;;;;;;14.18;4.85;;;;;;;;;;4289776;33;20414;-77
2023/07/03 12:32:23;;;;;;;7.95;6.12;;;;;;;;;;4308776;33;20385;-75
2023/07/03 12:34:49;;;;;;;11.27;4.62;;;;;;;;;;4310789;33;20092;-76
2023/07/03 12:37:17;;;;;;;9.98;5.62;;;;;;;;;;4310397;33;20086;-75
2023/07/03 12:39:44;;;;;;;10.23;5.15;;;;;;;;;;4314514;33;20439;-76
2023/07/03 12:42:17;;;;;;;13.57;5.70;;;;;;;;;;4312005;33;20239;-75
2023/07/03 12:44:44;;;;;;;15.00;6.12;;;;;;;;;;4300448;33;21018;-76
2023/07/03 12:47:11;;;;;;;16.55;5.32;;;;;;;;;;4298220;33;20068;-75
2023/07/03 12:49:55;;;;;;;15.30;5.90;;;;;;;;;;4300395;33;20123;-76
2023/07/03 12:52:22;;;;;;;13.30;5.30;;;;;;;;;;4298279;33;20067;-76
2023/07/03 12:54:49;;;;;;;14.40;5.75;;;;;;;;;;4300680;33;20434;-76
2023/07/03 12:57:16;;;;;;;14.38;5.78;;;;;;;;;;4262591;33;20494;-76
2023/07/03 12:59:48;;;;;;;13.52;6.03;;;;;;;;;;4262071;33;20083;-77
2023/07/03 13:02:30;;;;;;;27.05;5.35;;;;;;;;;;4246008;33;20076;-76
2023/07/03 13:05:09;;;;;;;15.20;5.53;;;;;;;;;;4219845;33;20067;-76
2023/07/03 13:07:35;;;;;;;8.82;6.05;;;;;;;;;;4233100;33;20153;-76
2023/07/03 13:10:13;;;;;;;12.80;5.47;;;;;;;;;;4238250;33;21187;-75
2023/07/03 13:12:39;;;;;;;9.13;5.72;;;;;;;;;;4236886;33;20074;-75
2023/07/03 13:15:06;;;;;;;14.77;6.43;;;;;;;;;;4239408;33;20117;-75
2023/07/03 13:17:34;;;;;;;14.82;5.50;;;;;;;;;;4247974;33;20046;-75
2023/07/03 13:20:33;;;;;;;11.20;5.70;;;;;;;;;;4250206;33;20059;-75
2023/07/03 13:23:01;;;;;;;12.82;6.05;;;;;;;;;;4206774;34;20522;-77
2023/07/03 13:25:29;;;;;;;14.25;5.78;;;;;;;;;;4205660;34;20216;-76
2023/07/03 13:27:56;;;;;;;8.32;5.30;;;;;;;;;;4217899;33;20171;-76
2023/07/03 13:30:25;;;;;;;11.00;5.32;;;;;;;;;;4221969;34;20102;-76
2023/07/03 13:33:04;;;;;;;28.10;8.18;;;;;;;;;;4225145;33;20358;-76
2023/07/03 13:35:33;;;;;;;8.57;5.70;;;;;;;;;;4233583;33;20442;-75
2023/07/03 13:38:13;;;;;;;13.82;6.18;;;;;;;;;;4235659;33;20234;-76
2023/07/03 13:40:39;;;;;;;12.98;6.30;;;;;;;;;;4229348;33;20151;-76
2023/07/03 13:43:06;;;;;;;10.13;6.18;;;;;;;;;;4232532;33;20114;-75
2023/07/03 13:45:32;;;;;;;9.30;5.22;;;;;;;;;;4215756;33;20158;-77
2023/07/03 13:47:58;;;;;;;15.00;6.68;;;;;;;;;;4210575;34;20104;-76
2023/07/03 13:50:25;;;;;;;15.00;6.78;;;;;;;;;;4209221;34;20084;-76
2023/07/03 13:52:53;;;;;;;15.40;6.65;;;;;;;;;;4207334;34;20496;-76
2023/07/03 13:55:20;;;;;;;12.63;6.78;;;;;;;;;;4218416;33;20489;-77
2023/07/03 13:57:49;;;;;;;13.00;7.20;;;;;;;;;;4197738;33;20047;-76
2023/07/03 14:00:19;;;;;;;18.27;6.43;;;;;;;;;;4245629;33;20277;-75
2023/07/03 14:02:46;;;;;;;16.05;6.35;;;;;;;;;;4278272;33;20054;-75
2023/07/03 14:05:20;;;;;;;14.65;6.65;;;;;;;;;;4268107;33;20049;-75
2023/07/03 14:07:48;;;;;;;25.35;6.97;;;;;;;;;;4260455;33;20500;-75
2023/07/03 14:10:14;;;;;;;15.13;7.28;;;;;;;;;;4245121;33;20060;-75
2023/07/03 14:12:40;;;;;;;14.75;6.35;;;;;;;;;;4243705;33;20092;-76
2023/07/03 14:15:15;;;;;;;12.27;7.03;;;;;;;;;;4237326;33;20058;-76
2023/07/03 14:17:41;;;;;;;11.43;6.40;;;;;;;;;;4238294;33;20051;-76
2023/07/03 14:20:14;;;;;;;16.85;7.70;;;;;;;;;;4238798;33;20046;-75
2023/07/03 14:22:43;;;;;;;11.98;7.20;;;;;;;;;;4236917;33;20030;-76
2023/07/03 14:25:16;;;;;;;20.42;7.30;;;;;;;;;;4236549;33;20058;-76
2023/07/03 14:27:47;;;;;;;20.50;7.00;;;;;;;;;;4237517;33;20034;-76
2023/07/03 14:30:17;;;;;;;14.30;6.62;;;;;;;;;;4208901;34;20062;-76
2023/07/03 14:32:43;;;;;;;14.20;6.62;;;;;;;;;;4220591;33;20051;-77
2023/07/03 14:35:13;;;;;;;19.05;7.00;;;;;;;;;;4209879;33;20055;-76
2023/07/03 14:37:41;;;;;;;19.33;6.20;;;;;;;;;;4222417;33;20077;-75
2023/07/03 14:40:07;;;;;;;13.60;6.70;;;;;;;;;;4222977;33;20059;-75
2023/07/03 14:42:33;;;;;;;10.52;6.87;;;;;;;;;;4220442;34;20058;-77
2023/07/03 14:44:59;;;;;;;14.10;6.85;;;;;;;;;;4222473;33;20082;-75
2023/07/03 14:47:25;;;;;;;21.80;7.97;;;;;;;;;;4251332;33;20042;-74
2023/07/03 14:49:51;;;;;;;19.37;8.27;;;;;;;;;;4251064;33;20073;-76
2023/07/03 14:52:19;;;;;;;15.60;7.05;;;;;;;;;;4250227;33;20097;-76
2023/07/03 14:54:46;;;;;;;10.13;5.80;;;;;;;;;;4250150;33;20034;-76
2023/07/03 14:57:13;;;;;;;18.37;5.95;;;;;;;;;;4261127;33;20053;-76
2023/07/03 14:59:41;;;;;;;15.27;6.80;;;;;;;;;;4262425;33;20112;-77
2023/07/03 15:02:07;;;;;;;15.38;6.28;;;;;;;;;;4263813;33;20053;-75
2023/07/03 15:04:33;;;;;;;14.57;5.90;;;;;;;;;;4273119;33;20228;-76
2023/07/03 15:07:00;;;;;;;20.37;6.15;;;;;;;;;;4266762;33;20066;-77
2023/07/03 15:09:26;;;;;;;14.57;6.95;;;;;;;;;;4273838;33;20087;-76
2023/07/03 15:11:52;;;;;;;17.10;6.40;;;;;;;;;;4288534;33;20441;-75
2023/07/03 15:14:19;;;;;;;16.40;6.05;;;;;;;;;;4307077;33;20041;-75
2023/07/03 15:16:45;;;;;;;15.85;6.62;;;;;;;;;;4292875;33;20033;-76
2023/07/03 15:19:13;;;;;;;16.87;6.85;;;;;;;;;;4289876;33;20084;-77
2023/07/03 15:21:40;;;;;;;15.93;6.15;;;;;;;;;;4290460;33;20078;-75
2023/07/03 15:24:07;;;;;;;12.30;6.50;;;;;;;;;;4294249;33;20067;-75
2023/07/03 15:26:37;;;;;;;22.40;6.85;;;;;;;;;;4291387;33;21378;-75
2023/07/03 15:29:04;;;;;;;16.08;6.78;;;;;;;;;;4284792;33;20637;-76
2023/07/03 15:31:30;;;;;;;18.95;6.47;;;;;;;;;;4288375;33;20070;-75
2023/07/03 15:33:56;;;;;;;16.33;7.00;;;;;;;;;;4290726;33;20033;-75
2023/07/03 15:36:23;;;;;;;13.82;6.65;;;;;;;;;;4289308;33;20044;-75
2023/07/03 15:38:49;;;;;;;21.20;6.57;;;;;;;;;;4293872;33;20155;-76
2023/07/03 15:41:16;;;;;;;15.55;6.40;;;;;;;;;;4288900;33;20435;-76
2023/07/03 15:43:43;;;;;;;11.77;6.82;;;;;;;;;;4280384;33;20057;-76
2023/07/03 15:46:12;;;;;;;27.87;7.47;;;;;;;;;;4278615;33;20095;-77
2023/07/03 15:48:38;;;;;;;14.85;7.07;;;;;;;;;;4282276;33;20089;-76
2023/07/03 15:51:05;;;;;;;16.48;7.47;;;;;;;;;;4283801;33;20508;-77
2023/07/03 15:53:31;;;;;;;14.95;8.00;;;;;;;;;;4278838;33;20067;-76
2023/07/03 15:56:03;;;;;;;17.08;6.62;;;;;;;;;;4285773;33;20054;-76
2023/07/03 15:58:31;;;;;;;16.52;8.77;;;;;;;;;;4292179;33;20169;-76
2023/07/03 16:01:04;;;;;;;20.05;9.52;;;;;;;;;;4290225;33;20099;-78
2023/07/03 16:03:32;;;;;;;15.07;5.57;;;;;;;;;;4289789;33;20044;-77
2023/07/03 16:06:02;;;;;;;16.75;6.90;;;;;;;;;;4270034;33;20068;-76
2023/07/03 16:08:29;;;;;;;12.60;5.75;;;;;;;;;;4275090;33;20522;-76
2023/07/03 16:10:56;;;;;;;10.75;6.25;;;;;;;;;;4272928;33;20050;-76
2023/07/03 16:13:23;;;;;;;13.30;7.28;;;;;;;;;;4272274;33;20397;-76
2023/07/03 16:15:49;;;;;;;13.57;7.37;;;;;;;;;;4271138;33;20435;-75
2023/07/03 16:18:15;;;;;;;13.43;6.37;;;;;;;;;;4272964;33;20054;-75
2023/07/03 16:20:55;;;;;;;11.95;6.35;;;;;;;;;;4274989;33;20097;-75
2023/07/03 16:23:22;;;;;;;14.60;6.97;;;;;;;;;;4274718;33;20053;-76
2023/07/03 16:25:49;;;;;;;23.52;7.10;;;;;;;;;;4278472;33;20041;-77
2023/07/03 16:28:15;;;;;;;16.85;6.22;;;;;;;;;;4279411;33;20030;-75
2023/07/03 16:30:58;;;;;;;11.57;5.93;;;;;;;;;;4278003;33;20102;-77
2023/07/03 16:33:24;;;;;;;13.98;6.62;;;;;;;;;;4277737;33;20983;-75
2023/07/03 16:36:01;;;;;;;14.00;6.90;;;;;;;;;;4264642;33;20407;-75
2023/07/03 16:38:27;;;;;;;11.07;5.65;;;;;;;;;;4277381;33;20041;-76
2023/07/03 16:41:00;;;;;;;19.98;5.57;;;;;;;;;;4239355;33;20054;-76
2023/07/03 16:43:30;;;;;;;10.57;5.80;;;;;;;;;;4246662;33;20038;-75
2023/07/03 16:46:00;;;;;;;8.18;5.10;;;;;;;;;;4246164;33;20466;-76